sensor_id;sensor_type;location;lat;lon;timestamp;pressure;altitude;pressure_sealevel;temperature;humidity
59009;BME280;44794;42.652;23.318;2022-12-29T00:00:07;95377.56;;;4.62;100.00
59009;BME280;44794;42.652;23.318;2022-12-29T00:02:33;95382.81;;;4.59;100.00
59009;BME280;44794;42.652;23.318;2022-12-29T00:04:58;95381.91;;;4.60;100.00
59009;BME280;44794;42.652;23.318;2022-12-29T00:07:23;95383.63;;;4.60;100.00
59009;BME280;44794;42.652;23.318;2022-12-29T00:09:49;95387.13;;;4.59;100.00
59009;BME280;44794;42.652;23.318;2022-12-29T00:12:14;95388.06;;;4.56;100.00
59009;BME280;44794;42.652;23.318;2022-12-29T00:14:40;95391.41;;;4.58;100.00
59009;BME280;44794;42.652;23.318;2022-12-29T00:17:24;95392.72;;;4.47;100.00
59009;BME280;44794;42.652;23.318;2022-12-29T00:19:50;95403.88;;;4.46;100.00
59009;BME280;44794;42.652;23.318;2022-12-29T00:22:33;95395.59;;;4.40;100.00
59009;BME280;44794;42.652;23.318;2022-12-29T00:25:17;95397.38;;;4.38;100.00
59009;BME280;44794;42.652;23.318;2022-12-29T00:28:01;95392.84;;;4.44;100.00
59009;BME280;44794;42.652;23.318;2022-12-29T00:30:45;95393.56;;;4.47;100.00
59009;BME280;44794;42.652;23.318;2022-12-29T00:33:31;95395.84;;;4.55;100.00
59009;BME280;44794;42.652;23.318;2022-12-29T00:36:48;95394.94;;;4.56;100.00
59009;BME280;44794;42.652;23.318;2022-12-29T00:39:16;95402.56;;;4.59;100.00
59009;BME280;44794;42.652;23.318;2022-12-29T00:42:06;95408.28;;;4.65;100.00
59009;BME280;44794;42.652;23.318;2022-12-29T00:44:50;95410.03;;;4.65;100.00
59009;BME280;44794;42.652;23.318;2022-12-29T00:47:16;95415.13;;;4.43;100.00
59009;BME280;44794;42.652;23.318;2022-12-29T00:49:41;95410.16;;;4.39;100.00
59009;BME280;44794;42.652;23.318;2022-12-29T00:52:09;95409.63;;;4.31;100.00
59009;BME280;44794;42.652;23.318;2022-12-29T00:54:39;95408.66;;;4.34;100.00
59009;BME280;44794;42.652;23.318;2022-12-29T00:57:06;95409.09;;;4.44;100.00
59009;BME280;44794;42.652;23.318;2022-12-29T00:59:34;95413.97;;;4.52;100.00
59009;BME280;44794;42.652;23.318;2022-12-29T01:02:00;95406.75;;;4.39;100.00
59009;BME280;44794;42.652;23.318;2022-12-29T01:04:26;95401.00;;;4.32;100.00
59009;BME280;44794;42.652;23.318;2022-12-29T01:06:51;95407.72;;;4.36;100.00
59009;BME280;44794;42.652;23.318;2022-12-29T01:09:18;95409.16;;;4.43;100.00
59009;BME280;44794;42.652;23.318;2022-12-29T01:12:03;95405.41;;;4.51;100.00
59009;BME280;44794;42.652;23.318;2022-12-29T01:14:29;95398.16;;;4.61;100.00
59009;BME280;44794;42.652;23.318;2022-12-29T01:16:55;95394.53;;;4.66;100.00
59009;BME280;44794;42.652;23.318;2022-12-29T01:19:21;95402.06;;;4.71;100.00
59009;BME280;44794;42.652;23.318;2022-12-29T01:21:47;95399.44;;;4.72;100.00
59009;BME280;44794;42.652;23.318;2022-12-29T01:24:15;95405.44;;;4.73;100.00
59009;BME280;44794;42.652;23.318;2022-12-29T01:26:41;95408.84;;;4.73;100.00
59009;BME280;44794;42.652;23.318;2022-12-29T01:29:06;95411.50;;;4.70;100.00
59009;BME280;44794;42.652;23.318;2022-12-29T01:31:31;95407.31;;;4.68;100.00
59009;BME280;44794;42.652;23.318;2022-12-29T01:33:57;95401.53;;;4.63;100.00
59009;BME280;44794;42.652;23.318;2022-12-29T01:36:24;95392.28;;;4.59;100.00
59009;BME280;44794;42.652;23.318;2022-12-29T01:38:50;95386.44;;;4.54;100.00
59009;BME280;44794;42.652;23.318;2022-12-29T01:41:16;95381.44;;;4.51;100.00
59009;BME280;44794;42.652;23.318;2022-12-29T01:43:46;95385.88;;;4.46;100.00
59009;BME280;44794;42.652;23.318;2022-12-29T01:46:38;95381.84;;;4.41;100.00
59009;BME280;44794;42.652;23.318;2022-12-29T01:51:36;95383.19;;;4.28;100.00
59009;BME280;44794;42.652;23.318;2022-12-29T01:54:07;95383.38;;;4.23;100.00
59009;BME280;44794;42.652;23.318;2022-12-29T01:56:35;95378.22;;;4.23;100.00
59009;BME280;44794;42.652;23.318;2022-12-29T01:59:05;95373.19;;;4.20;100.00
59009;BME280;44794;42.652;23.318;2022-12-29T02:01:32;95367.25;;;4.18;100.00
59009;BME280;44794;42.652;23.318;2022-12-29T02:03:58;95363.69;;;4.22;100.00
59009;BME280;44794;42.652;23.318;2022-12-29T02:06:29;95350.50;;;4.31;100.00
59009;BME280;44794;42.652;23.318;2022-12-29T02:08:56;95346.81;;;4.38;100.00
59009;BME280;44794;42.652;23.318;2022-12-29T02:11:25;95345.84;;;4.41;100.00
59009;BME280;44794;42.652;23.318;2022-12-29T02:13:52;95345.66;;;4.45;100.00
59009;BME280;44794;42.652;23.318;2022-12-29T02:27:48;95355.09;;;4.44;100.00
59009;BME280;44794;42.652;23.318;2022-12-29T02:41:38;95373.56;;;4.54;100.00
59009;BME280;44794;42.652;23.318;2022-12-29T02:46:53;95368.09;;;4.42;100.00
59009;BME280;44794;42.652;23.318;2022-12-29T02:49:37;95382.59;;;4.43;100.00
59009;BME280;44794;42.652;23.318;2022-12-29T02:52:11;95375.75;;;4.43;100.00
59009;BME280;44794;42.652;23.318;2022-12-29T02:54:39;95369.63;;;4.45;100.00
59009;BME280;44794;42.652;23.318;2022-12-29T02:57:28;95360.06;;;4.49;100.00
59009;BME280;44794;42.652;23.318;2022-12-29T03:02:39;95365.50;;;4.63;100.00
59009;BME280;44794;42.652;23.318;2022-12-29T03:11:00;95361.16;;;4.65;100.00
59009;BME280;44794;42.652;23.318;2022-12-29T03:13:44;95349.44;;;4.58;100.00
59009;BME280;44794;42.652;23.318;2022-12-29T03:16:33;95358.03;;;4.57;100.00
59009;BME280;44794;42.652;23.318;2022-12-29T03:19:00;95350.44;;;4.54;100.00
59009;BME280;44794;42.652;23.318;2022-12-29T03:21:39;95344.56;;;4.50;100.00
59009;BME280;44794;42.652;23.318;2022-12-29T03:24:29;95346.72;;;4.40;100.00
59009;BME280;44794;42.652;23.318;2022-12-29T03:26:58;95337.91;;;4.24;100.00
59009;BME280;44794;42.652;23.318;2022-12-29T03:29:27;95333.34;;;4.09;100.00
59009;BME280;44794;42.652;23.318;2022-12-29T03:31:55;95340.81;;;3.93;100.00
59009;BME280;44794;42.652;23.318;2022-12-29T03:34:22;95337.59;;;3.87;100.00
59009;BME280;44794;42.652;23.318;2022-12-29T03:37:01;95336.28;;;3.77;100.00
59009;BME280;44794;42.652;23.318;2022-12-29T03:39:28;95329.78;;;3.67;100.00
59009;BME280;44794;42.652;23.318;2022-12-29T03:42:03;95330.97;;;3.59;100.00
59009;BME280;44794;42.652;23.318;2022-12-29T03:44:36;95326.94;;;3.52;100.00
59009;BME280;44794;42.652;23.318;2022-12-29T03:47:02;95331.63;;;3.41;100.00
59009;BME280;44794;42.652;23.318;2022-12-29T03:49:28;95332.09;;;3.27;100.00
59009;BME280;44794;42.652;23.318;2022-12-29T03:51:54;95324.03;;;3.13;100.00
59009;BME280;44794;42.652;23.318;2022-12-29T03:54:19;95332.75;;;3.08;100.00
59009;BME280;44794;42.652;23.318;2022-12-29T03:56:45;95332.16;;;3.00;100.00
59009;BME280;44794;42.652;23.318;2022-12-29T03:59:10;95333.38;;;2.90;100.00
59009;BME280;44794;42.652;23.318;2022-12-29T04:01:36;95335.34;;;2.82;100.00
59009;BME280;44794;42.652;23.318;2022-12-29T04:04:01;95328.66;;;2.78;100.00
59009;BME280;44794;42.652;23.318;2022-12-29T04:06:27;95341.63;;;2.74;100.00
59009;BME280;44794;42.652;23.318;2022-12-29T04:08:52;95340.09;;;2.68;100.00
59009;BME280;44794;42.652;23.318;2022-12-29T04:11:18;95330.09;;;2.61;100.00
59009;BME280;44794;42.652;23.318;2022-12-29T04:13:43;95316.34;;;2.63;100.00
59009;BME280;44794;42.652;23.318;2022-12-29T04:16:08;95312.09;;;2.62;100.00
59009;BME280;44794;42.652;23.318;2022-12-29T04:18:34;95310.50;;;2.58;100.00
59009;BME280;44794;42.652;23.318;2022-12-29T04:21:00;95316.88;;;2.47;100.00
59009;BME280;44794;42.652;23.318;2022-12-29T04:23:26;95319.56;;;2.42;100.00
59009;BME280;44794;42.652;23.318;2022-12-29T04:25:52;95313.72;;;2.39;100.00
59009;BME280;44794;42.652;23.318;2022-12-29T04:28:17;95317.22;;;2.36;100.00
59009;BME280;44794;42.652;23.318;2022-12-29T04:30:43;95309.84;;;2.26;100.00
59009;BME280;44794;42.652;23.318;2022-12-29T04:33:09;95318.44;;;2.23;100.00
59009;BME280;44794;42.652;23.318;2022-12-29T04:35:34;95319.44;;;2.20;100.00
59009;BME280;44794;42.652;23.318;2022-12-29T04:38:00;95322.94;;;2.17;100.00
59009;BME280;44794;42.652;23.318;2022-12-29T04:40:25;95307.75;;;2.11;100.00
59009;BME280;44794;42.652;23.318;2022-12-29T04:42:51;95323.00;;;2.16;100.00
59009;BME280;44794;42.652;23.318;2022-12-29T04:45:16;95320.59;;;2.10;100.00
59009;BME280;44794;42.652;23.318;2022-12-29T04:47:42;95320.66;;;2.08;100.00
59009;BME280;44794;42.652;23.318;2022-12-29T04:50:08;95324.63;;;2.17;100.00
59009;BME280;44794;42.652;23.318;2022-12-29T04:52:33;95322.09;;;2.17;100.00
59009;BME280;44794;42.652;23.318;2022-12-29T04:54:59;95340.19;;;2.11;100.00
59009;BME280;44794;42.652;23.318;2022-12-29T04:57:25;95336.81;;;2.10;100.00
59009;BME280;44794;42.652;23.318;2022-12-29T04:59:50;95335.13;;;2.09;100.00
59009;BME280;44794;42.652;23.318;2022-12-29T05:02:16;95324.88;;;2.09;100.00
59009;BME280;44794;42.652;23.318;2022-12-29T05:04:41;95335.00;;;2.14;100.00
59009;BME280;44794;42.652;23.318;2022-12-29T05:07:07;95330.50;;;2.22;100.00
59009;BME280;44794;42.652;23.318;2022-12-29T05:09:32;95331.97;;;2.28;100.00
59009;BME280;44794;42.652;23.318;2022-12-29T05:11:58;95331.72;;;2.36;100.00
59009;BME280;44794;42.652;23.318;2022-12-29T05:14:24;95329.81;;;2.42;100.00
59009;BME280;44794;42.652;23.318;2022-12-29T05:16:49;95326.94;;;2.53;100.00
59009;BME280;44794;42.652;23.318;2022-12-29T05:19:14;95330.97;;;2.60;100.00
59009;BME280;44794;42.652;23.318;2022-12-29T05:21:42;95334.06;;;2.69;100.00
59009;BME280;44794;42.652;23.318;2022-12-29T05:24:07;95328.28;;;2.63;100.00
59009;BME280;44794;42.652;23.318;2022-12-29T05:26:33;95325.31;;;2.76;100.00
59009;BME280;44794;42.652;23.318;2022-12-29T05:28:59;95321.13;;;2.74;100.00
59009;BME280;44794;42.652;23.318;2022-12-29T05:31:25;95324.28;;;2.80;100.00
59009;BME280;44794;42.652;23.318;2022-12-29T05:33:51;95319.75;;;2.88;100.00
59009;BME280;44794;42.652;23.318;2022-12-29T05:36:16;95328.88;;;2.96;100.00
59009;BME280;44794;42.652;23.318;2022-12-29T05:38:42;95330.47;;;3.00;100.00
59009;BME280;44794;42.652;23.318;2022-12-29T05:41:07;95335.38;;;3.06;100.00
59009;BME280;44794;42.652;23.318;2022-12-29T05:43:33;95345.34;;;3.15;100.00
59009;BME280;44794;42.652;23.318;2022-12-29T05:45:58;95339.84;;;3.01;100.00
59009;BME280;44794;42.652;23.318;2022-12-29T05:48:24;95344.69;;;3.09;100.00
59009;BME280;44794;42.652;23.318;2022-12-29T05:50:50;95346.06;;;3.19;100.00
59009;BME280;44794;42.652;23.318;2022-12-29T05:53:16;95344.91;;;3.27;100.00
59009;BME280;44794;42.652;23.318;2022-12-29T05:55:46;95356.75;;;3.31;100.00
59009;BME280;44794;42.652;23.318;2022-12-29T05:58:12;95354.00;;;3.37;100.00
59009;BME280;44794;42.652;23.318;2022-12-29T06:00:37;95359.72;;;3.44;100.00
59009;BME280;44794;42.652;23.318;2022-12-29T06:03:03;95351.72;;;3.28;100.00
59009;BME280;44794;42.652;23.318;2022-12-29T06:05:29;95354.81;;;3.38;100.00
59009;BME280;44794;42.652;23.318;2022-12-29T06:07:54;95363.03;;;3.47;100.00
59009;BME280;44794;42.652;23.318;2022-12-29T06:10:20;95360.03;;;3.59;100.00
59009;BME280;44794;42.652;23.318;2022-12-29T06:12:45;95372.56;;;3.68;100.00
59009;BME280;44794;42.652;23.318;2022-12-29T06:15:11;95380.16;;;3.71;100.00
59009;BME280;44794;42.652;23.318;2022-12-29T06:17:36;95373.72;;;3.60;100.00
59009;BME280;44794;42.652;23.318;2022-12-29T06:20:02;95383.31;;;3.79;100.00
59009;BME280;44794;42.652;23.318;2022-12-29T06:22:28;95378.53;;;3.91;100.00
59009;BME280;44794;42.652;23.318;2022-12-29T06:24:53;95384.03;;;4.05;100.00
59009;BME280;44794;42.652;23.318;2022-12-29T06:27:19;95389.72;;;4.13;100.00
59009;BME280;44794;42.652;23.318;2022-12-29T06:29:44;95394.41;;;4.25;100.00
59009;BME280;44794;42.652;23.318;2022-12-29T06:32:10;95396.47;;;4.39;100.00
59009;BME280;44794;42.652;23.318;2022-12-29T06:34:35;95399.94;;;4.38;100.00
59009;BME280;44794;42.652;23.318;2022-12-29T06:37:01;95416.22;;;4.38;100.00
59009;BME280;44794;42.652;23.318;2022-12-29T06:39:27;95411.25;;;4.55;100.00
59009;BME280;44794;42.652;23.318;2022-12-29T06:41:53;95419.59;;;4.61;100.00
59009;BME280;44794;42.652;23.318;2022-12-29T06:44:22;95435.75;;;4.65;100.00
59009;BME280;44794;42.652;23.318;2022-12-29T06:46:48;95424.69;;;4.84;100.00
59009;BME280;44794;42.652;23.318;2022-12-29T06:49:14;95427.50;;;5.00;100.00
59009;BME280;44794;42.652;23.318;2022-12-29T06:51:39;95432.66;;;5.00;100.00
59009;BME280;44794;42.652;23.318;2022-12-29T06:54:05;95442.47;;;4.90;100.00
59009;BME280;44794;42.652;23.318;2022-12-29T06:56:30;95441.44;;;4.94;100.00
59009;BME280;44794;42.652;23.318;2022-12-29T06:58:56;95451.03;;;5.12;100.00
59009;BME280;44794;42.652;23.318;2022-12-29T07:01:23;95449.75;;;5.22;100.00
59009;BME280;44794;42.652;23.318;2022-12-29T07:03:48;95454.81;;;5.25;100.00
59009;BME280;44794;42.652;23.318;2022-12-29T07:06:14;95450.25;;;5.51;100.00
59009;BME280;44794;42.652;23.318;2022-12-29T07:08:39;95460.53;;;5.73;99.70
59009;BME280;44794;42.652;23.318;2022-12-29T07:11:05;95466.75;;;5.89;98.43
59009;BME280;44794;42.652;23.318;2022-12-29T07:13:30;95467.06;;;5.81;97.13
59009;BME280;44794;42.652;23.318;2022-12-29T07:15:56;95473.50;;;5.71;96.04
59009;BME280;44794;42.652;23.318;2022-12-29T07:18:21;95468.03;;;5.98;95.78
59009;BME280;44794;42.652;23.318;2022-12-29T07:20:47;95474.13;;;6.16;94.88
59009;BME280;44794;42.652;23.318;2022-12-29T07:23:13;95477.75;;;6.32;93.95
59009;BME280;44794;42.652;23.318;2022-12-29T07:25:38;95475.25;;;6.49;92.98
59009;BME280;44794;42.652;23.318;2022-12-29T07:28:05;95484.88;;;6.45;91.80
59009;BME280;44794;42.652;23.318;2022-12-29T07:30:31;95476.94;;;6.50;91.21
59009;BME280;44794;42.652;23.318;2022-12-29T07:32:56;95490.47;;;6.55;90.57
59009;BME280;44794;42.652;23.318;2022-12-29T07:35:22;95477.69;;;6.52;90.74
59009;BME280;44794;42.652;23.318;2022-12-29T07:37:47;95479.16;;;6.39;90.30
59009;BME280;44794;42.652;23.318;2022-12-29T07:40:13;95477.09;;;6.65;90.71
59009;BME280;44794;42.652;23.318;2022-12-29T07:42:38;95484.19;;;6.60;89.68
59009;BME280;44794;42.652;23.318;2022-12-29T07:45:04;95482.69;;;6.93;89.02
59009;BME280;44794;42.652;23.318;2022-12-29T07:47:30;95491.16;;;6.76;87.54
59009;BME280;44794;42.652;23.318;2022-12-29T07:49:55;95493.34;;;6.85;88.13
59009;BME280;44794;42.652;23.318;2022-12-29T07:52:21;95493.84;;;6.93;87.39
59009;BME280;44794;42.652;23.318;2022-12-29T07:54:47;95499.13;;;7.09;86.00
59009;BME280;44794;42.652;23.318;2022-12-29T07:57:12;95494.94;;;7.25;85.22
59009;BME280;44794;42.652;23.318;2022-12-29T07:59:37;95497.53;;;7.06;84.87
59009;BME280;44794;42.652;23.318;2022-12-29T08:02:03;95498.94;;;7.13;85.57
59009;BME280;44794;42.652;23.318;2022-12-29T08:04:28;95506.66;;;6.95;85.01
59009;BME280;44794;42.652;23.318;2022-12-29T08:06:54;95506.88;;;6.90;85.44
59009;BME280;44794;42.652;23.318;2022-12-29T08:09:19;95504.91;;;7.32;85.19
59009;BME280;44794;42.652;23.318;2022-12-29T08:11:45;95516.69;;;7.56;84.27
59009;BME280;44794;42.652;23.318;2022-12-29T08:14:10;95509.56;;;7.95;82.42
59009;BME280;44794;42.652;23.318;2022-12-29T08:16:36;95513.25;;;8.08;80.82
59009;BME280;44794;42.652;23.318;2022-12-29T08:19:01;95511.09;;;7.99;80.14
59009;BME280;44794;42.652;23.318;2022-12-29T08:21:28;95520.91;;;7.92;79.44
59009;BME280;44794;42.652;23.318;2022-12-29T08:23:54;95515.94;;;7.88;79.39
59009;BME280;44794;42.652;23.318;2022-12-29T08:26:19;95521.03;;;7.55;80.14
59009;BME280;44794;42.652;23.318;2022-12-29T08:28:45;95514.41;;;7.67;79.73
59009;BME280;44794;42.652;23.318;2022-12-29T08:31:10;95508.78;;;7.59;80.04
59009;BME280;44794;42.652;23.318;2022-12-29T08:33:35;95511.97;;;7.64;79.68
59009;BME280;44794;42.652;23.318;2022-12-29T08:36:03;95508.97;;;7.73;80.06
59009;BME280;44794;42.652;23.318;2022-12-29T08:38:29;95510.91;;;7.68;79.76
59009;BME280;44794;42.652;23.318;2022-12-29T08:40:56;95509.00;;;7.54;80.19
59009;BME280;44794;42.652;23.318;2022-12-29T08:43:22;95505.38;;;7.40;80.87
59009;BME280;44794;42.652;23.318;2022-12-29T08:45:47;95505.59;;;7.36;81.21
59009;BME280;44794;42.652;23.318;2022-12-29T08:48:13;95501.47;;;7.50;81.36
59009;BME280;44794;42.652;23.318;2022-12-29T08:50:38;95509.22;;;7.67;80.64
59009;BME280;44794;42.652;23.318;2022-12-29T08:53:04;95509.78;;;7.73;79.79
59009;BME280;44794;42.652;23.318;2022-12-29T08:55:29;95502.63;;;7.61;80.19
59009;BME280;44794;42.652;23.318;2022-12-29T08:57:55;95502.13;;;7.72;80.33
59009;BME280;44794;42.652;23.318;2022-12-29T09:00:20;95496.44;;;7.47;79.72
59009;BME280;44794;42.652;23.318;2022-12-29T09:02:46;95495.88;;;7.59;80.72
59009;BME280;44794;42.652;23.318;2022-12-29T09:05:12;95502.69;;;7.60;80.14
59009;BME280;44794;42.652;23.318;2022-12-29T09:07:37;95493.13;;;7.62;80.20
59009;BME280;44794;42.652;23.318;2022-12-29T09:10:04;95489.75;;;7.60;80.27
59009;BME280;44794;42.652;23.318;2022-12-29T09:12:29;95484.91;;;7.36;81.05
59009;BME280;44794;42.652;23.318;2022-12-29T09:14:55;95489.44;;;7.49;81.17
59009;BME280;44794;42.652;23.318;2022-12-29T09:17:20;95481.66;;;7.32;81.52
59009;BME280;44794;42.652;23.318;2022-12-29T09:20:05;95484.00;;;7.20;81.66
59009;BME280;44794;42.652;23.318;2022-12-29T09:22:31;95480.84;;;7.13;82.46
59009;BME280;44794;42.652;23.318;2022-12-29T09:24:56;95469.94;;;7.25;82.78
59009;BME280;44794;42.652;23.318;2022-12-29T09:27:21;95475.75;;;7.47;82.16
59009;BME280;44794;42.652;23.318;2022-12-29T09:29:47;95486.66;;;7.53;81.51
59009;BME280;44794;42.652;23.318;2022-12-29T09:32:12;95480.50;;;7.56;81.02
59009;BME280;44794;42.652;23.318;2022-12-29T09:34:38;95478.38;;;7.64;80.50
59009;BME280;44794;42.652;23.318;2022-12-29T09:37:04;95472.69;;;7.74;81.15
59009;BME280;44794;42.652;23.318;2022-12-29T09:39:29;95475.63;;;7.67;80.83
59009;BME280;44794;42.652;23.318;2022-12-29T09:42:08;95471.97;;;7.88;80.41
59009;BME280;44794;42.652;23.318;2022-12-29T09:45:40;95477.09;;;8.06;79.30
59009;BME280;44794;42.652;23.318;2022-12-29T09:47:46;95469.88;;;8.13;78.46
59009;BME280;44794;42.652;23.318;2022-12-29T09:50:26;95468.50;;;8.22;78.73
59009;BME280;44794;42.652;23.318;2022-12-29T09:55:21;95457.00;;;8.45;77.98
59009;BME280;44794;42.652;23.318;2022-12-29T10:00:18;95461.88;;;8.66;77.35
59009;BME280;44794;42.652;23.318;2022-12-29T10:02:56;95458.94;;;8.72;77.20
59009;BME280;44794;42.652;23.318;2022-12-29T10:05:43;95450.78;;;8.80;76.12
59009;BME280;44794;42.652;23.318;2022-12-29T10:16:28;95439.03;;;8.57;76.09
59009;BME280;44794;42.652;23.318;2022-12-29T10:24:18;95435.06;;;8.67;76.00
59009;BME280;44794;42.652;23.318;2022-12-29T10:26:47;95439.56;;;8.79;75.66
59009;BME280;44794;42.652;23.318;2022-12-29T10:29:22;95438.78;;;8.46;76.61
59009;BME280;44794;42.652;23.318;2022-12-29T10:32:17;95436.75;;;8.68;76.28
59009;BME280;44794;42.652;23.318;2022-12-29T10:34:42;95434.06;;;8.85;75.99
59009;BME280;44794;42.652;23.318;2022-12-29T10:39:58;95425.88;;;9.08;74.75
59009;BME280;44794;42.652;23.318;2022-12-29T10:42:33;95422.88;;;9.15;74.71
59009;BME280;44794;42.652;23.318;2022-12-29T10:45:02;95423.47;;;9.20;75.11
59009;BME280;44794;42.652;23.318;2022-12-29T10:47:35;95413.91;;;9.36;74.65
59009;BME280;44794;42.652;23.318;2022-12-29T10:50:04;95416.16;;;9.42;73.70
59009;BME280;44794;42.652;23.318;2022-12-29T10:52:31;95410.53;;;9.50;73.48
59009;BME280;44794;42.652;23.318;2022-12-29T10:55:26;95418.97;;;9.53;73.22
59009;BME280;44794;42.652;23.318;2022-12-29T10:57:54;95412.06;;;9.54;73.37
59009;BME280;44794;42.652;23.318;2022-12-29T11:00:22;95394.81;;;9.53;73.19
59009;BME280;44794;42.652;23.318;2022-12-29T11:03:21;95396.91;;;9.46;73.10
59009;BME280;44794;42.652;23.318;2022-12-29T11:05:57;95392.56;;;9.47;73.26
59009;BME280;44794;42.652;23.318;2022-12-29T11:08:30;95389.38;;;9.42;73.58
59009;BME280;44794;42.652;23.318;2022-12-29T11:11:03;95383.69;;;9.21;73.96
59009;BME280;44794;42.652;23.318;2022-12-29T11:13:32;95382.47;;;9.27;74.41
59009;BME280;44794;42.652;23.318;2022-12-29T11:15:57;95382.16;;;9.33;74.51
59009;BME280;44794;42.652;23.318;2022-12-29T11:18:38;95379.38;;;9.36;74.25
59009;BME280;44794;42.652;23.318;2022-12-29T11:24:02;95377.75;;;9.49;74.22
59009;BME280;44794;42.652;23.318;2022-12-29T11:26:29;95379.00;;;9.57;73.85
59009;BME280;44794;42.652;23.318;2022-12-29T11:31:53;95367.63;;;9.60;73.88
59009;BME280;44794;42.652;23.318;2022-12-29T11:34:33;95376.94;;;9.48;73.78
59009;BME280;44794;42.652;23.318;2022-12-29T11:37:11;95376.06;;;9.48;73.48
59009;BME280;44794;42.652;23.318;2022-12-29T11:42:36;95374.25;;;9.50;73.18
59009;BME280;44794;42.652;23.318;2022-12-29T11:45:18;95363.91;;;9.64;72.69
59009;BME280;44794;42.652;23.318;2022-12-29T11:47:46;95363.53;;;9.69;72.28
59009;BME280;44794;42.652;23.318;2022-12-29T11:50:33;95358.19;;;9.72;72.28
59009;BME280;44794;42.652;23.318;2022-12-29T11:53:15;95362.06;;;9.66;72.23
59009;BME280;44794;42.652;23.318;2022-12-29T11:55:51;95364.22;;;9.44;72.92
59009;BME280;44794;42.652;23.318;2022-12-29T11:58:17;95358.16;;;9.59;73.21
59009;BME280;44794;42.652;23.318;2022-12-29T12:00:44;95358.34;;;9.69;72.09
59009;BME280;44794;42.652;23.318;2022-12-29T12:03:18;95373.47;;;9.63;72.12
59009;BME280;44794;42.652;23.318;2022-12-29T12:05:56;95361.81;;;9.70;71.81
59009;BME280;44794;42.652;23.318;2022-12-29T12:08:56;95344.41;;;9.86;71.81
59009;BME280;44794;42.652;23.318;2022-12-29T12:11:28;95355.47;;;10.03;71.05
59009;BME280;44794;42.652;23.318;2022-12-29T12:16:40;95351.63;;;10.38;68.89
59009;BME280;44794;42.652;23.318;2022-12-29T12:21:44;95345.41;;;10.41;68.65
59009;BME280;44794;42.652;23.318;2022-12-29T12:30:04;95340.78;;;10.86;67.23
59009;BME280;44794;42.652;23.318;2022-12-29T12:43:36;95341.03;;;10.41;69.41
59009;BME280;44794;42.652;23.318;2022-12-29T12:59:29;95321.84;;;10.30;69.48
59009;BME280;44794;42.652;23.318;2022-12-29T13:07:48;95326.22;;;10.29;70.85
59009;BME280;44794;42.652;23.318;2022-12-29T13:10:26;95327.41;;;10.38;70.23
59009;BME280;44794;42.652;23.318;2022-12-29T13:13:48;95332.97;;;10.32;70.18
59009;BME280;44794;42.652;23.318;2022-12-29T13:16:21;95316.38;;;10.06;71.02
59009;BME280;44794;42.652;23.318;2022-12-29T13:21:50;95323.88;;;10.11;71.07
59009;BME280;44794;42.652;23.318;2022-12-29T13:27:42;95327.59;;;10.07;71.20
59009;BME280;44794;42.652;23.318;2022-12-29T13:30:19;95332.06;;;10.05;71.01
59009;BME280;44794;42.652;23.318;2022-12-29T13:33:14;95333.34;;;10.12;70.90
59009;BME280;44794;42.652;23.318;2022-12-29T13:38:19;95331.41;;;10.15;71.10
59009;BME280;44794;42.652;23.318;2022-12-29T13:40:49;95332.69;;;10.22;70.55
59009;BME280;44794;42.652;23.318;2022-12-29T13:43:17;95340.28;;;10.25;70.20
59009;BME280;44794;42.652;23.318;2022-12-29T13:45:45;95337.78;;;10.38;69.65
59009;BME280;44794;42.652;23.318;2022-12-29T13:48:29;95333.06;;;10.44;69.35
59009;BME280;44794;42.652;23.318;2022-12-29T13:50:59;95337.69;;;10.39;69.11
59009;BME280;44794;42.652;23.318;2022-12-29T13:56:39;95334.44;;;10.36;69.55
59009;BME280;44794;42.652;23.318;2022-12-29T14:02:42;95333.97;;;10.57;70.04
59009;BME280;44794;42.652;23.318;2022-12-29T14:07:44;95331.28;;;10.58;70.31
59009;BME280;44794;42.652;23.318;2022-12-29T14:10:35;95335.44;;;10.61;70.43
59009;BME280;44794;42.652;23.318;2022-12-29T14:13:13;95345.81;;;10.61;69.78
59009;BME280;44794;42.652;23.318;2022-12-29T14:15:42;95331.28;;;10.58;70.14
59009;BME280;44794;42.652;23.318;2022-12-29T14:18:16;95336.09;;;10.50;70.07
59009;BME280;44794;42.652;23.318;2022-12-29T14:20:54;95344.56;;;10.26;70.30
59009;BME280;44794;42.652;23.318;2022-12-29T14:28:41;95352.75;;;9.91;71.84
59009;BME280;44794;42.652;23.318;2022-12-29T14:33:39;95360.94;;;9.69;73.01
59009;BME280;44794;42.652;23.318;2022-12-29T14:38:49;95367.63;;;9.60;74.38
59009;BME280;44794;42.652;23.318;2022-12-29T14:41:37;95354.41;;;9.49;75.03
59009;BME280;44794;42.652;23.318;2022-12-29T14:46:43;95350.19;;;9.32;76.17
59009;BME280;44794;42.652;23.318;2022-12-29T14:49:16;95345.88;;;9.17;76.81
59009;BME280;44794;42.652;23.318;2022-12-29T14:51:43;95352.78;;;9.03;77.64
59009;BME280;44794;42.652;23.318;2022-12-29T14:56:59;95355.63;;;8.68;79.59
59009;BME280;44794;42.652;23.318;2022-12-29T14:59:28;95349.53;;;8.53;80.62
59009;BME280;44794;42.652;23.318;2022-12-29T15:01:55;95349.44;;;8.39;81.33
59009;BME280;44794;42.652;23.318;2022-12-29T15:04:25;95339.06;;;8.24;81.98
59009;BME280;44794;42.652;23.318;2022-12-29T15:06:52;95341.56;;;8.09;83.13
59009;BME280;44794;42.652;23.318;2022-12-29T15:09:34;95349.50;;;8.06;83.54
59009;BME280;44794;42.652;23.318;2022-12-29T15:12:23;95348.16;;;7.99;84.24
59009;BME280;44794;42.652;23.318;2022-12-29T15:14:58;95345.13;;;7.91;84.57
59009;BME280;44794;42.652;23.318;2022-12-29T15:17:34;95339.13;;;7.90;85.14
59009;BME280;44794;42.652;23.318;2022-12-29T15:20:13;95344.53;;;7.86;85.26
59009;BME280;44794;42.652;23.318;2022-12-29T15:22:44;95336.44;;;7.76;85.87
59009;BME280;44794;42.652;23.318;2022-12-29T15:25:15;95340.25;;;7.69;85.91
59009;BME280;44794;42.652;23.318;2022-12-29T15:27:43;95338.25;;;7.57;86.02
59009;BME280;44794;42.652;23.318;2022-12-29T15:30:13;95337.28;;;7.43;86.68